DLH6LX LGAV-EDDM
Flight info
| Callsign | DLH6LX |
|---|---|
| Flight time | 2h 18m |
| Altitude | 34000 |
| Route | KOR UL613 XANIS DCT DIMIS DCT PETAK DCT GLOMY DCT ELTIB DCT GORPA DCT BERTA DCT RASTA DCT REDBU Q112 NAPSA NAPSA1B |
| Aircraft | A321/M-SDE3FGHIRWY/LB1 |
Departure
| Time | 2026-05-05 12:52 |
|---|---|
| Airport | Athens Eleftherios Venizelos International Airport (LGAV) |
Arrival
| Time | 2026-05-05 15:10 |
|---|---|
| Airport | Munich Airport (EDDM) |
| Time | Latitude | Longitude | Altitude | Speed | Heading |
|---|---|---|---|---|---|
| 2026-05-05 11:42 | 37.93836 | 23.95060 | 301 ft | 0 kts | 307° |
| 2026-05-05 12:42 | 37.93828 | 23.95074 | 303 ft | 4 kts | 310° |
| 2026-05-05 12:42 | 37.93810 | 23.95099 | 300 ft | 4 kts | 319° |
| 2026-05-05 12:42 | 37.93788 | 23.95118 | 300 ft | 4 kts | 342° |
| 2026-05-05 12:42 | 37.93766 | 23.95119 | 300 ft | 2 kts | 36° |
| 2026-05-05 12:43 | 37.93765 | 23.95118 | 300 ft | 0 kts | 37° |
| 2026-05-05 12:45 | 37.93767 | 23.95119 | 300 ft | 1 kts | 37° |
| 2026-05-05 12:45 | 37.93786 | 23.95138 | 301 ft | 7 kts | 37° |
| 2026-05-05 12:46 | 37.93837 | 23.95187 | 302 ft | 10 kts | 42° |
| 2026-05-05 12:46 | 37.93872 | 23.95268 | 301 ft | 11 kts | 69° |
| 2026-05-05 12:46 | 37.93884 | 23.95365 | 301 ft | 12 kts | 111° |
| 2026-05-05 12:46 | 37.93851 | 23.95463 | 296 ft | 14 kts | 71° |
| 2026-05-05 12:47 | 37.93926 | 23.95543 | 300 ft | 14 kts | 36° |
| 2026-05-05 12:47 | 37.94008 | 23.95620 | 299 ft | 15 kts | 37° |
| 2026-05-05 12:47 | 37.94092 | 23.95700 | 298 ft | 15 kts | 37° |
| 2026-05-05 12:47 | 37.94177 | 23.95781 | 298 ft | 15 kts | 37° |
| 2026-05-05 12:48 | 37.94270 | 23.95869 | 298 ft | 18 kts | 37° |
| 2026-05-05 12:48 | 37.94371 | 23.95965 | 299 ft | 18 kts | 37° |
| 2026-05-05 12:48 | 37.94472 | 23.96061 | 301 ft | 18 kts | 37° |
| 2026-05-05 12:48 | 37.94574 | 23.96158 | 301 ft | 18 kts | 37° |
| 2026-05-05 12:49 | 37.94676 | 23.96255 | 301 ft | 18 kts | 37° |
| 2026-05-05 12:49 | 37.94778 | 23.96351 | 300 ft | 18 kts | 37° |
| 2026-05-05 12:49 | 37.94878 | 23.96446 | 304 ft | 18 kts | 37° |
| 2026-05-05 12:49 | 37.94977 | 23.96540 | 303 ft | 18 kts | 37° |
| 2026-05-05 12:50 | 37.95075 | 23.96633 | 303 ft | 18 kts | 37° |
| 2026-05-05 12:50 | 37.95174 | 23.96726 | 305 ft | 18 kts | 37° |
| 2026-05-05 12:50 | 37.95272 | 23.96819 | 305 ft | 16 kts | 37° |
| 2026-05-05 12:50 | 37.95279 | 23.96930 | 306 ft | 13 kts | 125° |
| 2026-05-05 12:51 | 37.95235 | 23.97006 | 310 ft | 9 kts | 126° |
| 2026-05-05 12:51 | 37.95190 | 23.97020 | 310 ft | 7 kts | 212° |
| 2026-05-05 12:51 | 37.95139 | 23.96974 | 311 ft | 17 kts | 216° |
| 2026-05-05 12:51 | 37.94843 | 23.96694 | 306 ft | 87 kts | 217° |
| 2026-05-05 12:52 | 37.94187 | 23.96071 | 285 ft | 146 kts | 217° |
| 2026-05-05 12:52 | 37.93265 | 23.95192 | 322 ft | 185 kts | 215° |
| 2026-05-05 12:52 | 37.92228 | 23.94279 | 1039 ft | 174 kts | 208° |
| 2026-05-05 12:52 | 37.91177 | 23.93556 | 1699 ft | 174 kts | 209° |
| 2026-05-05 12:53 | 37.90106 | 23.92873 | 2345 ft | 172 kts | 209° |
| 2026-05-05 12:53 | 37.89021 | 23.92183 | 2804 ft | 177 kts | 209° |
| 2026-05-05 12:53 | 37.87909 | 23.91475 | 3279 ft | 180 kts | 210° |
| 2026-05-05 12:53 | 37.86758 | 23.90751 | 3574 ft | 194 kts | 210° |
| 2026-05-05 12:54 | 37.84123 | 23.89028 | 3961 ft | 232 kts | 211° |
| 2026-05-05 12:54 | 37.82640 | 23.88002 | 4145 ft | 252 kts | 211° |
| 2026-05-05 12:54 | 37.81088 | 23.86917 | 4780 ft | 256 kts | 211° |
| 2026-05-05 12:55 | 37.79519 | 23.85825 | 5441 ft | 259 kts | 211° |
| 2026-05-05 12:55 | 37.77925 | 23.84723 | 6060 ft | 263 kts | 211° |
| 2026-05-05 12:55 | 37.76310 | 23.83613 | 6674 ft | 266 kts | 211° |
| 2026-05-05 12:55 | 37.74670 | 23.82491 | 7247 ft | 271 kts | 210° |
| 2026-05-05 12:56 | 37.72995 | 23.81362 | 7824 ft | 274 kts | 210° |
| 2026-05-05 12:56 | 37.71298 | 23.80229 | 8433 ft | 277 kts | 210° |
| 2026-05-05 12:56 | 37.69581 | 23.79089 | 9053 ft | 280 kts | 210° |
| 2026-05-05 12:56 | 37.67852 | 23.77942 | 9673 ft | 282 kts | 210° |
| 2026-05-05 12:57 | 37.66103 | 23.76781 | 10252 ft | 285 kts | 210° |
| 2026-05-05 12:57 | 37.64341 | 23.75609 | 10807 ft | 288 kts | 210° |
| 2026-05-05 12:57 | 37.62565 | 23.74428 | 11346 ft | 290 kts | 210° |
| 2026-05-05 12:57 | 37.60774 | 23.73236 | 11912 ft | 292 kts | 211° |
| 2026-05-05 12:58 | 37.58967 | 23.72032 | 12460 ft | 295 kts | 211° |
| 2026-05-05 12:58 | 37.57167 | 23.70775 | 12945 ft | 299 kts | 218° |
| 2026-05-05 12:58 | 37.55742 | 23.68845 | 13071 ft | 307 kts | 246° |
| 2026-05-05 12:58 | 37.55067 | 23.66280 | 13217 ft | 315 kts | 263° |
| 2026-05-05 12:59 | 37.54651 | 23.63493 | 13346 ft | 332 kts | 263° |
| 2026-05-05 12:59 | 37.54200 | 23.60571 | 13485 ft | 347 kts | 262° |
| 2026-05-05 12:59 | 37.53715 | 23.57533 | 13705 ft | 359 kts | 262° |
| 2026-05-05 13:00 | 37.52683 | 23.51299 | 14579 ft | 366 kts | 262° |
| 2026-05-05 13:00 | 37.52158 | 23.48151 | 15068 ft | 369 kts | 262° |
| 2026-05-05 13:01 | 37.50569 | 23.38589 | 16461 ft | 375 kts | 262° |
| 2026-05-05 13:01 | 37.50040 | 23.35406 | 16916 ft | 378 kts | 262° |
| 2026-05-05 13:01 | 37.49503 | 23.32162 | 17392 ft | 380 kts | 262° |
| 2026-05-05 13:01 | 37.49070 | 23.28887 | 17829 ft | 378 kts | 271° |
| 2026-05-05 13:02 | 37.49284 | 23.25623 | 18261 ft | 373 kts | 287° |
| 2026-05-05 13:02 | 37.50203 | 23.22592 | 18628 ft | 370 kts | 302° |
| 2026-05-05 13:02 | 37.51732 | 23.20017 | 19004 ft | 368 kts | 316° |
| 2026-05-05 13:02 | 37.53755 | 23.18057 | 19389 ft | 368 kts | 331° |
| 2026-05-05 13:03 | 37.56045 | 23.16602 | 19775 ft | 370 kts | 333° |
| 2026-05-05 13:03 | 37.58357 | 23.15171 | 20172 ft | 371 kts | 333° |
| 2026-05-05 13:03 | 37.60681 | 23.13734 | 20546 ft | 373 kts | 333° |
| 2026-05-05 13:03 | 37.63015 | 23.12294 | 20905 ft | 374 kts | 333° |
| 2026-05-05 13:04 | 37.65358 | 23.10848 | 21292 ft | 376 kts | 333° |
| 2026-05-05 13:04 | 37.67709 | 23.09394 | 21649 ft | 377 kts | 333° |
| 2026-05-05 13:04 | 37.70067 | 23.07929 | 22051 ft | 378 kts | 333° |
| 2026-05-05 13:04 | 37.72425 | 23.06462 | 22411 ft | 379 kts | 333° |
| 2026-05-05 13:05 | 37.74794 | 23.04986 | 22750 ft | 380 kts | 332° |
| 2026-05-05 13:05 | 37.77166 | 23.03506 | 23067 ft | 381 kts | 333° |
| 2026-05-05 13:05 | 37.79553 | 23.02020 | 23412 ft | 383 kts | 333° |
| 2026-05-05 13:05 | 37.81945 | 23.00529 | 23751 ft | 385 kts | 333° |
| 2026-05-05 13:06 | 37.84350 | 22.99031 | 24048 ft | 386 kts | 333° |
| 2026-05-05 13:06 | 37.86762 | 22.97526 | 24360 ft | 387 kts | 333° |
| 2026-05-05 13:06 | 37.89180 | 22.96018 | 24657 ft | 388 kts | 333° |
| 2026-05-05 13:06 | 37.91599 | 22.94493 | 24975 ft | 388 kts | 331° |
| 2026-05-05 13:07 | 37.93821 | 22.92645 | 25268 ft | 388 kts | 321° |
| 2026-05-05 13:07 | 37.95837 | 22.90362 | 25584 ft | 389 kts | 318° |
| 2026-05-05 13:07 | 37.97830 | 22.88041 | 25884 ft | 390 kts | 319° |
| 2026-05-05 13:07 | 37.99834 | 22.85714 | 26182 ft | 391 kts | 319° |
| 2026-05-05 13:08 | 38.01840 | 22.83386 | 26481 ft | 391 kts | 319° |
| 2026-05-05 13:08 | 38.03852 | 22.81052 | 26787 ft | 392 kts | 319° |
| 2026-05-05 13:08 | 38.05865 | 22.78715 | 27059 ft | 393 kts | 319° |
| 2026-05-05 13:08 | 38.07880 | 22.76368 | 27324 ft | 393 kts | 319° |
| 2026-05-05 13:09 | 38.09894 | 22.74016 | 27605 ft | 394 kts | 319° |
| 2026-05-05 13:09 | 38.11916 | 22.71655 | 27884 ft | 395 kts | 319° |
| 2026-05-05 13:09 | 38.13938 | 22.69290 | 28157 ft | 396 kts | 319° |
| 2026-05-05 13:09 | 38.15966 | 22.66923 | 28420 ft | 396 kts | 319° |
| 2026-05-05 13:10 | 38.17314 | 22.65352 | 28584 ft | 397 kts | 319° |
| 2026-05-05 13:10 | 38.19349 | 22.62981 | 28827 ft | 398 kts | 319° |
| 2026-05-05 13:10 | 38.21392 | 22.60601 | 29062 ft | 398 kts | 319° |
| 2026-05-05 13:10 | 38.23438 | 22.58218 | 29284 ft | 399 kts | 319° |
| 2026-05-05 13:11 | 38.25488 | 22.55833 | 29511 ft | 399 kts | 319° |
| 2026-05-05 13:11 | 38.27542 | 22.53447 | 29727 ft | 400 kts | 319° |
| 2026-05-05 13:11 | 38.29591 | 22.51060 | 29993 ft | 399 kts | 319° |
| 2026-05-05 13:11 | 38.31629 | 22.48679 | 30273 ft | 397 kts | 319° |
| 2026-05-05 13:12 | 38.33660 | 22.46302 | 30510 ft | 396 kts | 319° |
| 2026-05-05 13:12 | 38.35686 | 22.43932 | 30680 ft | 396 kts | 319° |
| 2026-05-05 13:12 | 38.37718 | 22.41554 | 30846 ft | 397 kts | 319° |
| 2026-05-05 13:12 | 38.39752 | 22.39172 | 31032 ft | 397 kts | 319° |
| 2026-05-05 13:13 | 38.41782 | 22.36789 | 31233 ft | 397 kts | 318° |
| 2026-05-05 13:13 | 38.43811 | 22.34405 | 31422 ft | 397 kts | 318° |
| 2026-05-05 13:13 | 38.45838 | 22.32020 | 31622 ft | 396 kts | 318° |
| 2026-05-05 13:13 | 38.47860 | 22.29639 | 31838 ft | 395 kts | 318° |
| 2026-05-05 13:14 | 38.49879 | 22.27261 | 32038 ft | 394 kts | 318° |
| 2026-05-05 13:14 | 38.51896 | 22.24885 | 32238 ft | 395 kts | 318° |
| 2026-05-05 13:14 | 38.53911 | 22.22509 | 32441 ft | 394 kts | 318° |
| 2026-05-05 13:14 | 38.55924 | 22.20136 | 32643 ft | 394 kts | 318° |
| 2026-05-05 13:15 | 38.57949 | 22.17771 | 32847 ft | 394 kts | 319° |
| 2026-05-05 13:15 | 38.60025 | 22.15507 | 33025 ft | 392 kts | 321° |
| 2026-05-05 13:15 | 38.62149 | 22.13318 | 33183 ft | 393 kts | 321° |
| 2026-05-05 13:15 | 38.64301 | 22.11162 | 33330 ft | 393 kts | 321° |
| 2026-05-05 13:16 | 38.66461 | 22.08999 | 33463 ft | 394 kts | 321° |
| 2026-05-05 13:16 | 38.68614 | 22.06824 | 33612 ft | 395 kts | 321° |
| 2026-05-05 13:16 | 38.70759 | 22.04632 | 33827 ft | 394 kts | 320° |
| 2026-05-05 13:16 | 38.72895 | 22.02429 | 34032 ft | 394 kts | 320° |
| 2026-05-05 13:17 | 38.77146 | 21.98012 | 34091 ft | 393 kts | 320° |
| 2026-05-05 13:17 | 38.81378 | 21.93600 | 34084 ft | 391 kts | 320° |
| 2026-05-05 13:18 | 38.85565 | 21.89219 | 34094 ft | 391 kts | 320° |
| 2026-05-05 13:18 | 38.89781 | 21.84825 | 34091 ft | 390 kts | 320° |
| 2026-05-05 13:19 | 38.93997 | 21.80436 | 34075 ft | 390 kts | 320° |
| 2026-05-05 13:19 | 38.98206 | 21.76020 | 34089 ft | 391 kts | 320° |
| 2026-05-05 13:20 | 39.02414 | 21.71602 | 34099 ft | 390 kts | 320° |
| 2026-05-05 13:20 | 39.06621 | 21.67198 | 34110 ft | 390 kts | 320° |
| 2026-05-05 13:21 | 39.10821 | 21.62785 | 34113 ft | 390 kts | 320° |
| 2026-05-05 13:21 | 39.15019 | 21.58367 | 34108 ft | 389 kts | 320° |
| 2026-05-05 13:22 | 39.19208 | 21.53955 | 34106 ft | 389 kts | 320° |
| 2026-05-05 13:22 | 39.23370 | 21.49572 | 34112 ft | 389 kts | 320° |
| 2026-05-05 13:23 | 39.27580 | 21.45128 | 34113 ft | 388 kts | 320° |
| 2026-05-05 13:23 | 39.31755 | 21.40697 | 34110 ft | 388 kts | 320° |
| 2026-05-05 13:24 | 39.35896 | 21.36291 | 34134 ft | 388 kts | 320° |
| 2026-05-05 13:24 | 39.40063 | 21.31861 | 34129 ft | 387 kts | 320° |
| 2026-05-05 13:25 | 39.44225 | 21.27444 | 34127 ft | 387 kts | 320° |
| 2026-05-05 13:25 | 39.48378 | 21.23031 | 34128 ft | 386 kts | 320° |
| 2026-05-05 13:26 | 39.52517 | 21.18613 | 34133 ft | 385 kts | 320° |
| 2026-05-05 13:26 | 39.56650 | 21.14177 | 34132 ft | 386 kts | 320° |
| 2026-05-05 13:27 | 39.60781 | 21.09749 | 34144 ft | 385 kts | 319° |
| 2026-05-05 13:27 | 39.64910 | 21.05321 | 34150 ft | 385 kts | 319° |
| 2026-05-05 13:28 | 39.69039 | 21.00887 | 34154 ft | 385 kts | 319° |
| 2026-05-05 13:28 | 39.73163 | 20.96452 | 34157 ft | 385 kts | 319° |
| 2026-05-05 13:29 | 39.77285 | 20.92017 | 34157 ft | 384 kts | 319° |
| 2026-05-05 13:29 | 39.81393 | 20.87571 | 34154 ft | 384 kts | 319° |
| 2026-05-05 13:30 | 39.85500 | 20.83123 | 34149 ft | 384 kts | 319° |
| 2026-05-05 13:30 | 39.89605 | 20.78682 | 34145 ft | 383 kts | 319° |
| 2026-05-05 13:31 | 39.93702 | 20.74244 | 34130 ft | 382 kts | 319° |
| 2026-05-05 13:31 | 39.97781 | 20.69807 | 34125 ft | 381 kts | 319° |
| 2026-05-05 13:32 | 40.01820 | 20.65409 | 34119 ft | 380 kts | 319° |
| 2026-05-05 13:32 | 40.05874 | 20.60985 | 34117 ft | 380 kts | 319° |
| 2026-05-05 13:33 | 40.10312 | 20.57230 | 34114 ft | 382 kts | 327° |
| 2026-05-05 13:33 | 40.14952 | 20.53838 | 34116 ft | 382 kts | 327° |
| 2026-05-05 13:34 | 40.19591 | 20.50448 | 34110 ft | 382 kts | 327° |
| 2026-05-05 13:34 | 40.24233 | 20.47055 | 34104 ft | 382 kts | 327° |
| 2026-05-05 13:35 | 40.28870 | 20.43656 | 34109 ft | 381 kts | 327° |
| 2026-05-05 13:35 | 40.33484 | 20.40246 | 34111 ft | 380 kts | 326° |
| 2026-05-05 13:36 | 40.38093 | 20.36846 | 34123 ft | 380 kts | 327° |
| 2026-05-05 13:36 | 40.42717 | 20.33444 | 34118 ft | 381 kts | 327° |
| 2026-05-05 13:37 | 40.47338 | 20.30019 | 34113 ft | 381 kts | 327° |
| 2026-05-05 13:37 | 40.51959 | 20.26588 | 34112 ft | 381 kts | 327° |
| 2026-05-05 13:38 | 40.56578 | 20.23162 | 34116 ft | 381 kts | 327° |
| 2026-05-05 13:38 | 40.61190 | 20.19733 | 34123 ft | 381 kts | 326° |
| 2026-05-05 13:39 | 40.65772 | 20.16311 | 34109 ft | 382 kts | 326° |
| 2026-05-05 13:39 | 40.70399 | 20.12858 | 34093 ft | 382 kts | 326° |
| 2026-05-05 13:40 | 40.75025 | 20.09408 | 34096 ft | 382 kts | 326° |
| 2026-05-05 13:40 | 40.79641 | 20.05951 | 34098 ft | 382 kts | 326° |
| 2026-05-05 13:41 | 40.84260 | 20.02485 | 34107 ft | 382 kts | 326° |
| 2026-05-05 13:41 | 40.88888 | 19.99027 | 34099 ft | 383 kts | 326° |
| 2026-05-05 13:42 | 40.93530 | 19.95552 | 34095 ft | 383 kts | 326° |
| 2026-05-05 13:42 | 40.98164 | 19.92056 | 34101 ft | 384 kts | 325° |
| 2026-05-05 13:43 | 41.02807 | 19.88548 | 34109 ft | 384 kts | 325° |
| 2026-05-05 13:43 | 41.07459 | 19.85041 | 34113 ft | 385 kts | 325° |
| 2026-05-05 13:44 | 41.12109 | 19.81531 | 34120 ft | 385 kts | 325° |
| 2026-05-05 13:44 | 41.16757 | 19.78003 | 34116 ft | 385 kts | 325° |
| 2026-05-05 13:45 | 41.21417 | 19.74465 | 34112 ft | 386 kts | 325° |
| 2026-05-05 13:45 | 41.26045 | 19.70940 | 34118 ft | 386 kts | 325° |
| 2026-05-05 13:46 | 41.30713 | 19.67387 | 34124 ft | 387 kts | 325° |
| 2026-05-05 13:46 | 41.35420 | 19.63799 | 34108 ft | 388 kts | 324° |
| 2026-05-05 13:47 | 41.40085 | 19.60239 | 34106 ft | 390 kts | 324° |
| 2026-05-05 13:47 | 41.44788 | 19.56643 | 34108 ft | 390 kts | 324° |
| 2026-05-05 13:48 | 41.49495 | 19.53031 | 34112 ft | 390 kts | 324° |
| 2026-05-05 13:48 | 41.54203 | 19.49419 | 34115 ft | 390 kts | 324° |
| 2026-05-05 13:49 | 41.58918 | 19.45795 | 34105 ft | 392 kts | 324° |
| 2026-05-05 13:49 | 41.63640 | 19.42152 | 34102 ft | 393 kts | 324° |
| 2026-05-05 13:50 | 41.68375 | 19.38490 | 34099 ft | 393 kts | 324° |
| 2026-05-05 13:50 | 41.73114 | 19.34819 | 34102 ft | 394 kts | 324° |
| 2026-05-05 13:51 | 41.77853 | 19.31129 | 34115 ft | 394 kts | 323° |
| 2026-05-05 13:51 | 41.82464 | 19.27165 | 34095 ft | 394 kts | 321° |
| 2026-05-05 13:52 | 41.86997 | 19.23008 | 34090 ft | 395 kts | 320° |
| 2026-05-05 13:52 | 41.91552 | 19.18839 | 34092 ft | 397 kts | 321° |
| 2026-05-05 13:53 | 41.96143 | 19.14702 | 34094 ft | 398 kts | 321° |
| 2026-05-05 13:53 | 42.00752 | 19.10569 | 34093 ft | 398 kts | 321° |
| 2026-05-05 13:54 | 42.05368 | 19.06418 | 34097 ft | 400 kts | 321° |
| 2026-05-05 13:54 | 42.10004 | 19.02228 | 34089 ft | 402 kts | 321° |
| 2026-05-05 13:55 | 42.14628 | 18.98036 | 34091 ft | 404 kts | 321° |
| 2026-05-05 13:55 | 42.19333 | 18.93777 | 34096 ft | 405 kts | 321° |
| 2026-05-05 13:56 | 42.23982 | 18.89565 | 34107 ft | 406 kts | 321° |
| 2026-05-05 13:56 | 42.28665 | 18.85306 | 34101 ft | 407 kts | 322° |
| 2026-05-05 13:57 | 42.33367 | 18.81020 | 34091 ft | 408 kts | 322° |
| 2026-05-05 13:57 | 42.38081 | 18.76722 | 34100 ft | 409 kts | 322° |
| 2026-05-05 13:58 | 42.42798 | 18.72404 | 34140 ft | 409 kts | 321° |
| 2026-05-05 13:58 | 42.46712 | 18.68809 | 34144 ft | 409 kts | 321° |
| 2026-05-05 13:59 | 42.53789 | 18.62313 | 34119 ft | 411 kts | 322° |
| 2026-05-05 14:00 | 42.60911 | 18.55760 | 34104 ft | 413 kts | 322° |
| 2026-05-05 14:00 | 42.65665 | 18.51364 | 34111 ft | 414 kts | 322° |
| 2026-05-05 14:01 | 42.70428 | 18.46949 | 34120 ft | 415 kts | 322° |
| 2026-05-05 14:01 | 42.75214 | 18.42536 | 34121 ft | 416 kts | 323° |
| 2026-05-05 14:02 | 42.79974 | 18.38105 | 34098 ft | 419 kts | 322° |
| 2026-05-05 14:02 | 42.84789 | 18.33610 | 34091 ft | 420 kts | 322° |
| 2026-05-05 14:03 | 42.89627 | 18.29100 | 34089 ft | 422 kts | 322° |
| 2026-05-05 14:03 | 42.94472 | 18.24593 | 34094 ft | 422 kts | 322° |
| 2026-05-05 14:04 | 42.99324 | 18.20059 | 34096 ft | 423 kts | 322° |
| 2026-05-05 14:04 | 43.04183 | 18.15514 | 34091 ft | 424 kts | 322° |
| 2026-05-05 14:05 | 43.09041 | 18.10951 | 34091 ft | 424 kts | 322° |
| 2026-05-05 14:05 | 43.13899 | 18.06365 | 34094 ft | 424 kts | 322° |
| 2026-05-05 14:06 | 43.18767 | 18.01783 | 34102 ft | 425 kts | 322° |
| 2026-05-05 14:06 | 43.23646 | 17.97176 | 34093 ft | 426 kts | 322° |
| 2026-05-05 14:07 | 43.28533 | 17.92547 | 34093 ft | 427 kts | 322° |
| 2026-05-05 14:07 | 43.33428 | 17.87911 | 34095 ft | 428 kts | 322° |
| 2026-05-05 14:08 | 43.38326 | 17.83265 | 34100 ft | 428 kts | 322° |
| 2026-05-05 14:08 | 43.43220 | 17.78606 | 34095 ft | 428 kts | 322° |
| 2026-05-05 14:09 | 43.48110 | 17.73939 | 34090 ft | 428 kts | 322° |
| 2026-05-05 14:09 | 43.53001 | 17.69254 | 34083 ft | 429 kts | 321° |
| 2026-05-05 14:10 | 43.57857 | 17.64481 | 34080 ft | 428 kts | 319° |
| 2026-05-05 14:10 | 43.62488 | 17.59327 | 34091 ft | 427 kts | 316° |
| 2026-05-05 14:11 | 43.67037 | 17.54031 | 34082 ft | 428 kts | 316° |
| 2026-05-05 14:11 | 43.71623 | 17.48776 | 34084 ft | 429 kts | 317° |
| 2026-05-05 14:12 | 43.76248 | 17.43566 | 34085 ft | 429 kts | 317° |
| 2026-05-05 14:12 | 43.80844 | 17.38393 | 34086 ft | 429 kts | 317° |
| 2026-05-05 14:13 | 43.85467 | 17.33156 | 34079 ft | 429 kts | 316° |
| 2026-05-05 14:13 | 43.90078 | 17.27908 | 34086 ft | 429 kts | 317° |
| 2026-05-05 14:14 | 43.94689 | 17.22650 | 34077 ft | 429 kts | 317° |
| 2026-05-05 14:14 | 43.99300 | 17.17387 | 34087 ft | 429 kts | 317° |
| 2026-05-05 14:15 | 44.03906 | 17.12125 | 34073 ft | 429 kts | 317° |
| 2026-05-05 14:15 | 44.08506 | 17.06849 | 34081 ft | 429 kts | 316° |
| 2026-05-05 14:16 | 44.13101 | 17.01558 | 34060 ft | 430 kts | 317° |
| 2026-05-05 14:16 | 44.17712 | 16.96240 | 34050 ft | 431 kts | 317° |
| 2026-05-05 14:17 | 44.22340 | 16.90933 | 34046 ft | 431 kts | 317° |
| 2026-05-05 14:17 | 44.26959 | 16.85605 | 34057 ft | 431 kts | 317° |
| 2026-05-05 14:18 | 44.31652 | 16.80404 | 34062 ft | 432 kts | 321° |
| 2026-05-05 14:18 | 44.36602 | 16.75614 | 34049 ft | 434 kts | 322° |
| 2026-05-05 14:19 | 44.41542 | 16.70846 | 34026 ft | 435 kts | 322° |
| 2026-05-05 14:19 | 44.46523 | 16.66031 | 34048 ft | 434 kts | 322° |
| 2026-05-05 14:20 | 44.51481 | 16.61209 | 34044 ft | 434 kts | 322° |
| 2026-05-05 14:20 | 44.56430 | 16.56385 | 34046 ft | 433 kts | 322° |
| 2026-05-05 14:21 | 44.61383 | 16.51547 | 34021 ft | 434 kts | 322° |
| 2026-05-05 14:21 | 44.66352 | 16.46691 | 34015 ft | 436 kts | 322° |
| 2026-05-05 14:22 | 44.71327 | 16.41814 | 34029 ft | 435 kts | 322° |
| 2026-05-05 14:22 | 44.76286 | 16.36931 | 34024 ft | 435 kts | 322° |
| 2026-05-05 14:23 | 44.81244 | 16.32049 | 34025 ft | 435 kts | 322° |
| 2026-05-05 14:23 | 44.86213 | 16.27143 | 34004 ft | 437 kts | 322° |
| 2026-05-05 14:24 | 44.91192 | 16.22223 | 34000 ft | 438 kts | 322° |
| 2026-05-05 14:24 | 44.96177 | 16.17291 | 34020 ft | 437 kts | 322° |
| 2026-05-05 14:25 | 45.01110 | 16.12390 | 34026 ft | 436 kts | 322° |
| 2026-05-05 14:25 | 45.06064 | 16.07453 | 34020 ft | 436 kts | 322° |
| 2026-05-05 14:26 | 45.11032 | 16.02500 | 34009 ft | 437 kts | 322° |
| 2026-05-05 14:26 | 45.16005 | 15.97530 | 34004 ft | 438 kts | 322° |
| 2026-05-05 14:27 | 45.20975 | 15.92546 | 34014 ft | 437 kts | 322° |
| 2026-05-05 14:27 | 45.25942 | 15.87570 | 34029 ft | 437 kts | 322° |
| 2026-05-05 14:28 | 45.30897 | 15.82580 | 34004 ft | 437 kts | 322° |
| 2026-05-05 14:28 | 45.35861 | 15.77572 | 33997 ft | 438 kts | 322° |
| 2026-05-05 14:29 | 45.40831 | 15.72547 | 33999 ft | 439 kts | 322° |
| 2026-05-05 14:29 | 45.45806 | 15.67514 | 34013 ft | 438 kts | 321° |
| 2026-05-05 14:30 | 45.50768 | 15.62475 | 34013 ft | 438 kts | 321° |
| 2026-05-05 14:30 | 45.55738 | 15.57423 | 34005 ft | 439 kts | 321° |
| 2026-05-05 14:31 | 45.60717 | 15.52355 | 33996 ft | 440 kts | 321° |
| 2026-05-05 14:31 | 45.65693 | 15.47261 | 34001 ft | 440 kts | 321° |
| 2026-05-05 14:32 | 45.70670 | 15.42157 | 34011 ft | 440 kts | 321° |
| 2026-05-05 14:32 | 45.75651 | 15.37060 | 34013 ft | 440 kts | 321° |
| 2026-05-05 14:33 | 45.80610 | 15.31924 | 34013 ft | 440 kts | 321° |
| 2026-05-05 14:33 | 45.85517 | 15.26692 | 34012 ft | 439 kts | 320° |
| 2026-05-05 14:34 | 45.90408 | 15.21430 | 34010 ft | 439 kts | 320° |
| 2026-05-05 14:34 | 45.95264 | 15.16213 | 34020 ft | 439 kts | 320° |
| 2026-05-05 14:35 | 46.00169 | 15.10966 | 34015 ft | 440 kts | 320° |
| 2026-05-05 14:35 | 46.05088 | 15.05716 | 34007 ft | 440 kts | 320° |
| 2026-05-05 14:36 | 46.10006 | 15.00441 | 34002 ft | 441 kts | 320° |
| 2026-05-05 14:36 | 46.14923 | 14.95138 | 34007 ft | 441 kts | 320° |
| 2026-05-05 14:37 | 46.19841 | 14.89819 | 34016 ft | 442 kts | 320° |
| 2026-05-05 14:37 | 46.24741 | 14.84510 | 34039 ft | 440 kts | 320° |
| 2026-05-05 14:38 | 46.29623 | 14.79223 | 34033 ft | 438 kts | 319° |
| 2026-05-05 14:38 | 46.34489 | 14.73942 | 34033 ft | 437 kts | 319° |
| 2026-05-05 14:39 | 46.39338 | 14.68668 | 34030 ft | 435 kts | 319° |
| 2026-05-05 14:39 | 46.44170 | 14.63396 | 33979 ft | 434 kts | 319° |
| 2026-05-05 14:40 | 46.48952 | 14.58037 | 33978 ft | 434 kts | 318° |
| 2026-05-05 14:40 | 46.53613 | 14.52564 | 33969 ft | 434 kts | 317° |
| 2026-05-05 14:41 | 46.58297 | 14.47023 | 33963 ft | 434 kts | 318° |
| 2026-05-05 14:41 | 46.63000 | 14.41511 | 33964 ft | 434 kts | 317° |
| 2026-05-05 14:42 | 46.67712 | 14.36013 | 33965 ft | 434 kts | 317° |
| 2026-05-05 14:42 | 46.72421 | 14.30504 | 33967 ft | 435 kts | 318° |
| 2026-05-05 14:43 | 46.77133 | 14.24968 | 33955 ft | 436 kts | 318° |
| 2026-05-05 14:43 | 46.81850 | 14.19396 | 33953 ft | 436 kts | 318° |
| 2026-05-05 14:44 | 46.86566 | 14.13807 | 33946 ft | 437 kts | 317° |
| 2026-05-05 14:44 | 46.91286 | 14.08215 | 33943 ft | 437 kts | 318° |
| 2026-05-05 14:45 | 46.96013 | 14.02615 | 33952 ft | 437 kts | 317° |
| 2026-05-05 14:45 | 47.00738 | 13.96995 | 33934 ft | 438 kts | 317° |
| 2026-05-05 14:46 | 47.03099 | 13.94176 | 33568 ft | 437 kts | 317° |
| 2026-05-05 14:46 | 47.05447 | 13.91374 | 33018 ft | 434 kts | 317° |
| 2026-05-05 14:46 | 47.07776 | 13.88597 | 32539 ft | 429 kts | 317° |
| 2026-05-05 14:46 | 47.10080 | 13.85839 | 32057 ft | 426 kts | 317° |
| 2026-05-05 14:47 | 47.12364 | 13.83100 | 31575 ft | 422 kts | 317° |
| 2026-05-05 14:47 | 47.14630 | 13.80389 | 31085 ft | 419 kts | 317° |
| 2026-05-05 14:47 | 47.16879 | 13.77694 | 30606 ft | 416 kts | 317° |
| 2026-05-05 14:47 | 47.19109 | 13.75012 | 30127 ft | 413 kts | 317° |
| 2026-05-05 14:48 | 47.20578 | 13.73247 | 29810 ft | 411 kts | 317° |
| 2026-05-05 14:48 | 47.23499 | 13.69733 | 29145 ft | 407 kts | 317° |
| 2026-05-05 14:48 | 47.24971 | 13.67960 | 28815 ft | 404 kts | 317° |
| 2026-05-05 14:48 | 47.27831 | 13.64514 | 28227 ft | 399 kts | 317° |
| 2026-05-05 14:49 | 47.29961 | 13.61937 | 27787 ft | 395 kts | 317° |
| 2026-05-05 14:49 | 47.32070 | 13.59383 | 27352 ft | 391 kts | 317° |
| 2026-05-05 14:49 | 47.33488 | 13.57669 | 27045 ft | 388 kts | 317° |
| 2026-05-05 14:49 | 47.35566 | 13.55151 | 26611 ft | 385 kts | 317° |
| 2026-05-05 14:50 | 47.37621 | 13.52656 | 26205 ft | 381 kts | 317° |
| 2026-05-05 14:50 | 47.39657 | 13.50180 | 25804 ft | 378 kts | 317° |
| 2026-05-05 14:50 | 47.41651 | 13.47754 | 25413 ft | 375 kts | 317° |
| 2026-05-05 14:50 | 47.43651 | 13.45319 | 25020 ft | 371 kts | 317° |
| 2026-05-05 14:51 | 47.45633 | 13.42905 | 24624 ft | 368 kts | 317° |
| 2026-05-05 14:51 | 47.47604 | 13.40503 | 24229 ft | 367 kts | 317° |
| 2026-05-05 14:51 | 47.49570 | 13.38105 | 23846 ft | 366 kts | 317° |
| 2026-05-05 14:51 | 47.51530 | 13.35722 | 23461 ft | 364 kts | 317° |
| 2026-05-05 14:52 | 47.53486 | 13.33355 | 23012 ft | 362 kts | 317° |
| 2026-05-05 14:52 | 47.55433 | 13.31004 | 22617 ft | 360 kts | 317° |
| 2026-05-05 14:52 | 47.57367 | 13.28669 | 22222 ft | 358 kts | 317° |
| 2026-05-05 14:52 | 47.59293 | 13.26339 | 21820 ft | 355 kts | 317° |
| 2026-05-05 14:53 | 47.61199 | 13.24031 | 21423 ft | 353 kts | 317° |
| 2026-05-05 14:53 | 47.63089 | 13.21736 | 20999 ft | 350 kts | 317° |
| 2026-05-05 14:53 | 47.64966 | 13.19449 | 20607 ft | 348 kts | 317° |
| 2026-05-05 14:53 | 47.66831 | 13.17175 | 20203 ft | 346 kts | 317° |
| 2026-05-05 14:54 | 47.68685 | 13.14911 | 19807 ft | 344 kts | 317° |
| 2026-05-05 14:54 | 47.70524 | 13.12663 | 19411 ft | 342 kts | 317° |
| 2026-05-05 14:54 | 47.72355 | 13.10426 | 18979 ft | 340 kts | 316° |
| 2026-05-05 14:54 | 47.74176 | 13.08201 | 18580 ft | 338 kts | 316° |
| 2026-05-05 14:55 | 47.75982 | 13.05988 | 18186 ft | 335 kts | 316° |
| 2026-05-05 14:55 | 47.77773 | 13.03790 | 17760 ft | 333 kts | 316° |
| 2026-05-05 14:55 | 47.79547 | 13.01605 | 17360 ft | 329 kts | 316° |
| 2026-05-05 14:55 | 47.81296 | 12.99448 | 16997 ft | 326 kts | 316° |
| 2026-05-05 14:56 | 47.83034 | 12.97304 | 16616 ft | 323 kts | 316° |
| 2026-05-05 14:56 | 47.84757 | 12.95182 | 16225 ft | 321 kts | 316° |
| 2026-05-05 14:56 | 47.86480 | 12.93066 | 15851 ft | 319 kts | 317° |
| 2026-05-05 14:56 | 47.88189 | 12.90969 | 15472 ft | 317 kts | 317° |
| 2026-05-05 14:57 | 47.89888 | 12.88881 | 15092 ft | 316 kts | 317° |
| 2026-05-05 14:57 | 47.91571 | 12.86802 | 14714 ft | 314 kts | 317° |
| 2026-05-05 14:57 | 47.93247 | 12.84729 | 14339 ft | 312 kts | 317° |
| 2026-05-05 14:57 | 47.94882 | 12.82604 | 13964 ft | 311 kts | 311° |
| 2026-05-05 14:58 | 47.96232 | 12.80167 | 13632 ft | 307 kts | 300° |
| 2026-05-05 14:58 | 47.97435 | 12.77567 | 13404 ft | 307 kts | 304° |
| 2026-05-05 14:58 | 47.98780 | 12.75060 | 13146 ft | 310 kts | 307° |
| 2026-05-05 14:58 | 48.00189 | 12.72624 | 12873 ft | 310 kts | 308° |
| 2026-05-05 14:59 | 48.01608 | 12.70223 | 12476 ft | 307 kts | 308° |
| 2026-05-05 14:59 | 48.03014 | 12.67828 | 12094 ft | 305 kts | 308° |
| 2026-05-05 14:59 | 48.04396 | 12.65435 | 11702 ft | 304 kts | 307° |
| 2026-05-05 14:59 | 48.05765 | 12.63038 | 11335 ft | 302 kts | 307° |
| 2026-05-05 15:00 | 48.07121 | 12.60644 | 10983 ft | 301 kts | 307° |
| 2026-05-05 15:00 | 48.08029 | 12.59029 | 10747 ft | 300 kts | 307° |
| 2026-05-05 15:00 | 48.09793 | 12.55869 | 10300 ft | 298 kts | 306° |
| 2026-05-05 15:00 | 48.11116 | 12.53495 | 9934 ft | 296 kts | 306° |
| 2026-05-05 15:01 | 48.12433 | 12.51128 | 9548 ft | 295 kts | 306° |
| 2026-05-05 15:01 | 48.13742 | 12.48775 | 9163 ft | 293 kts | 306° |
| 2026-05-05 15:01 | 48.15044 | 12.46438 | 8784 ft | 291 kts | 307° |
| 2026-05-05 15:01 | 48.16337 | 12.44117 | 8423 ft | 289 kts | 307° |
| 2026-05-05 15:02 | 48.17621 | 12.41807 | 8172 ft | 289 kts | 307° |
| 2026-05-05 15:02 | 48.18903 | 12.39498 | 7933 ft | 288 kts | 307° |
| 2026-05-05 15:02 | 48.20180 | 12.37200 | 7679 ft | 287 kts | 307° |
| 2026-05-05 15:02 | 48.21455 | 12.34908 | 7428 ft | 285 kts | 307° |
| 2026-05-05 15:03 | 48.22719 | 12.32626 | 7187 ft | 284 kts | 307° |
| 2026-05-05 15:03 | 48.23980 | 12.30348 | 6940 ft | 284 kts | 307° |
| 2026-05-05 15:03 | 48.25239 | 12.28073 | 6701 ft | 283 kts | 307° |
| 2026-05-05 15:03 | 48.26492 | 12.25809 | 6455 ft | 281 kts | 307° |
| 2026-05-05 15:04 | 48.27723 | 12.23583 | 6229 ft | 280 kts | 307° |
| 2026-05-05 15:04 | 48.28957 | 12.21352 | 5976 ft | 275 kts | 307° |
| 2026-05-05 15:04 | 48.30169 | 12.19161 | 5725 ft | 270 kts | 306° |
| 2026-05-05 15:04 | 48.31352 | 12.17017 | 5473 ft | 265 kts | 307° |
| 2026-05-05 15:05 | 48.33649 | 12.12836 | 5049 ft | 251 kts | 307° |
| 2026-05-05 15:05 | 48.34722 | 12.10884 | 5017 ft | 234 kts | 308° |
| 2026-05-05 15:05 | 48.35713 | 12.09011 | 5006 ft | 225 kts | 301° |
| 2026-05-05 15:06 | 48.36287 | 12.06921 | 4857 ft | 210 kts | 281° |
| 2026-05-05 15:06 | 48.36308 | 12.04796 | 4611 ft | 198 kts | 263° |
| 2026-05-05 15:06 | 48.36157 | 12.02777 | 4378 ft | 191 kts | 264° |
| 2026-05-05 15:06 | 48.36005 | 12.00801 | 4076 ft | 189 kts | 263° |
| 2026-05-05 15:07 | 48.35843 | 11.98861 | 3855 ft | 184 kts | 264° |
| 2026-05-05 15:07 | 48.35702 | 11.96981 | 3596 ft | 180 kts | 264° |
| 2026-05-05 15:07 | 48.35582 | 11.95123 | 3342 ft | 177 kts | 264° |
| 2026-05-05 15:07 | 48.35460 | 11.93336 | 3136 ft | 165 kts | 264° |
| 2026-05-05 15:08 | 48.35322 | 11.91699 | 2966 ft | 153 kts | 263° |
| 2026-05-05 15:08 | 48.35201 | 11.90137 | 2754 ft | 149 kts | 263° |
| 2026-05-05 15:08 | 48.35097 | 11.88590 | 2566 ft | 148 kts | 265° |
| 2026-05-05 15:08 | 48.34986 | 11.87041 | 2364 ft | 150 kts | 263° |
| 2026-05-05 15:09 | 48.34859 | 11.85476 | 2149 ft | 152 kts | 263° |
| 2026-05-05 15:09 | 48.34729 | 11.83928 | 1949 ft | 148 kts | 264° |
| 2026-05-05 15:09 | 48.34622 | 11.82402 | 1774 ft | 145 kts | 263° |
| 2026-05-05 15:09 | 48.34511 | 11.80918 | 1584 ft | 141 kts | 265° |
| 2026-05-05 15:10 | 48.34405 | 11.79485 | 1480 ft | 126 kts | 264° |
| 2026-05-05 15:10 | 48.34325 | 11.78439 | 1485 ft | 76 kts | 263° |
| 2026-05-05 15:10 | 48.34333 | 11.77941 | 1479 ft | 32 kts | 289° |
| 2026-05-05 15:10 | 48.34407 | 11.77679 | 1484 ft | 24 kts | 293° |
| 2026-05-05 15:11 | 48.34468 | 11.77484 | 1476 ft | 18 kts | 310° |
| 2026-05-05 15:11 | 48.34577 | 11.77429 | 1482 ft | 13 kts | 353° |
| 2026-05-05 15:11 | 48.34632 | 11.77500 | 1482 ft | 13 kts | 82° |
| 2026-05-05 15:11 | 48.34644 | 11.77639 | 1485 ft | 14 kts | 83° |
| 2026-05-05 15:12 | 48.34656 | 11.77803 | 1485 ft | 17 kts | 83° |
| 2026-05-05 15:12 | 48.34671 | 11.77989 | 1485 ft | 18 kts | 83° |
| 2026-05-05 15:12 | 48.34686 | 11.78185 | 1482 ft | 19 kts | 83° |
| 2026-05-05 15:12 | 48.34702 | 11.78390 | 1480 ft | 20 kts | 83° |
| 2026-05-05 15:13 | 48.34718 | 11.78603 | 1481 ft | 21 kts | 83° |
| 2026-05-05 15:13 | 48.34735 | 11.78824 | 1480 ft | 22 kts | 83° |
| 2026-05-05 15:13 | 48.34753 | 11.79054 | 1475 ft | 22 kts | 83° |
| 2026-05-05 15:13 | 48.34771 | 11.79288 | 1476 ft | 22 kts | 83° |
| 2026-05-05 15:14 | 48.34785 | 11.79467 | 1474 ft | 14 kts | 83° |
| 2026-05-05 15:14 | 48.34846 | 11.79557 | 1481 ft | 14 kts | 359° |
| 2026-05-05 15:14 | 48.34949 | 11.79541 | 1485 ft | 15 kts | 353° |
| 2026-05-05 15:14 | 48.35015 | 11.79527 | 1482 ft | 6 kts | 339° |
| 2026-05-05 15:15 | 48.35022 | 11.79464 | 1479 ft | 7 kts | 262° |
| 2026-05-05 15:15 | 48.35017 | 11.79396 | 1485 ft | 5 kts | 264° |
| 2026-05-05 15:15 | 48.35016 | 11.79375 | 1485 ft | 0 kts | 264° |